sensor_id;sensor_type;location;lat;lon;timestamp;P1;durP1;ratioP1;P2;durP2;ratioP2
26946;SDS011;14501;52.282;10.560;2023-02-14T00:01:31;22.65;;;11.10;;
26946;SDS011;14501;52.282;10.560;2023-02-14T00:03:57;24.45;;;11.80;;
26946;SDS011;14501;52.282;10.560;2023-02-14T00:06:25;24.92;;;11.38;;
26946;SDS011;14501;52.282;10.560;2023-02-14T00:08:51;22.27;;;10.88;;
26946;SDS011;14501;52.282;10.560;2023-02-14T00:11:18;25.42;;;12.88;;
26946;SDS011;14501;52.282;10.560;2023-02-14T00:13:44;25.67;;;11.23;;
26946;SDS011;14501;52.282;10.560;2023-02-14T00:16:30;24.70;;;12.68;;
26946;SDS011;14501;52.282;10.560;2023-02-14T00:18:56;20.20;;;10.32;;
26946;SDS011;14501;52.282;10.560;2023-02-14T00:21:28;21.83;;;10.27;;
26946;SDS011;14501;52.282;10.560;2023-02-14T00:23:54;20.70;;;10.35;;
26946;SDS011;14501;52.282;10.560;2023-02-14T00:26:20;17.45;;;9.30;;
26946;SDS011;14501;52.282;10.560;2023-02-14T00:28:46;20.20;;;10.60;;
26946;SDS011;14501;52.282;10.560;2023-02-14T00:31:11;19.70;;;10.25;;
26946;SDS011;14501;52.282;10.560;2023-02-14T00:33:37;25.55;;;11.00;;
26946;SDS011;14501;52.282;10.560;2023-02-14T00:36:03;22.80;;;10.95;;
26946;SDS011;14501;52.282;10.560;2023-02-14T00:38:30;26.08;;;10.60;;
26946;SDS011;14501;52.282;10.560;2023-02-14T00:40:57;21.67;;;10.88;;
26946;SDS011;14501;52.282;10.560;2023-02-14T00:43:22;21.30;;;10.90;;
26946;SDS011;14501;52.282;10.560;2023-02-14T00:45:48;22.25;;;10.73;;
26946;SDS011;14501;52.282;10.560;2023-02-14T00:48:14;18.58;;;10.00;;
26946;SDS011;14501;52.282;10.560;2023-02-14T00:50:39;20.23;;;10.38;;
26946;SDS011;14501;52.282;10.560;2023-02-14T00:53:05;19.90;;;10.35;;
26946;SDS011;14501;52.282;10.560;2023-02-14T00:55:31;19.67;;;9.98;;
26946;SDS011;14501;52.282;10.560;2023-02-14T00:57:56;19.70;;;10.20;;
26946;SDS011;14501;52.282;10.560;2023-02-14T01:00:22;22.17;;;10.85;;
26946;SDS011;14501;52.282;10.560;2023-02-14T01:02:48;21.02;;;10.45;;
26946;SDS011;14501;52.282;10.560;2023-02-14T01:05:13;21.23;;;10.23;;
26946;SDS011;14501;52.282;10.560;2023-02-14T01:07:39;19.08;;;10.63;;
26946;SDS011;14501;52.282;10.560;2023-02-14T01:10:05;21.75;;;10.02;;
26946;SDS011;14501;52.282;10.560;2023-02-14T01:12:31;19.90;;;10.30;;
26946;SDS011;14501;52.282;10.560;2023-02-14T01:14:57;19.73;;;10.38;;
26946;SDS011;14501;52.282;10.560;2023-02-14T01:17:22;16.55;;;9.38;;
26946;SDS011;14501;52.282;10.560;2023-02-14T01:19:50;19.48;;;10.02;;
26946;SDS011;14501;52.282;10.560;2023-02-14T01:22:17;21.52;;;10.10;;
26946;SDS011;14501;52.282;10.560;2023-02-14T01:24:42;22.08;;;9.57;;
26946;SDS011;14501;52.282;10.560;2023-02-14T01:27:08;19.50;;;10.20;;
26946;SDS011;14501;52.282;10.560;2023-02-14T01:29:34;18.35;;;9.85;;
26946;SDS011;14501;52.282;10.560;2023-02-14T01:31:59;16.48;;;9.40;;
26946;SDS011;14501;52.282;10.560;2023-02-14T01:34:25;20.23;;;10.02;;
26946;SDS011;14501;52.282;10.560;2023-02-14T01:36:51;18.60;;;9.40;;
26946;SDS011;14501;52.282;10.560;2023-02-14T01:39:17;18.17;;;9.55;;
26946;SDS011;14501;52.282;10.560;2023-02-14T01:41:43;20.80;;;10.00;;
26946;SDS011;14501;52.282;10.560;2023-02-14T01:46:40;15.90;;;9.15;;
26946;SDS011;14501;52.282;10.560;2023-02-14T01:49:08;14.45;;;8.75;;
26946;SDS011;14501;52.282;10.560;2023-02-14T01:54:35;19.30;;;10.18;;
26946;SDS011;14501;52.282;10.560;2023-02-14T01:57:05;19.10;;;9.30;;
26946;SDS011;14501;52.282;10.560;2023-02-14T01:59:37;21.85;;;10.90;;
26946;SDS011;14501;52.282;10.560;2023-02-14T02:02:07;19.35;;;10.38;;
26946;SDS011;14501;52.282;10.560;2023-02-14T02:04:35;21.35;;;10.82;;
26946;SDS011;14501;52.282;10.560;2023-02-14T02:07:05;20.23;;;10.57;;
26946;SDS011;14501;52.282;10.560;2023-02-14T02:09:45;24.50;;;10.65;;
26946;SDS011;14501;52.282;10.560;2023-02-14T02:12:17;20.73;;;10.63;;
26946;SDS011;14501;52.282;10.560;2023-02-14T02:14:43;21.88;;;10.93;;
26946;SDS011;14501;52.282;10.560;2023-02-14T02:17:13;21.30;;;11.10;;
26946;SDS011;14501;52.282;10.560;2023-02-14T02:22:38;24.17;;;11.45;;
26946;SDS011;14501;52.282;10.560;2023-02-14T02:39:17;28.02;;;13.07;;
26946;SDS011;14501;52.282;10.560;2023-02-14T02:42:18;24.85;;;11.95;;
26946;SDS011;14501;52.282;10.560;2023-02-14T02:55:41;28.42;;;13.40;;
26946;SDS011;14501;52.282;10.560;2023-02-14T02:58:48;29.70;;;13.43;;
26946;SDS011;14501;52.282;10.560;2023-02-14T03:01:25;30.23;;;13.57;;
26946;SDS011;14501;52.282;10.560;2023-02-14T03:03:56;31.07;;;13.67;;
26946;SDS011;14501;52.282;10.560;2023-02-14T03:06:43;33.67;;;13.63;;
26946;SDS011;14501;52.282;10.560;2023-02-14T03:09:57;33.33;;;13.52;;
26946;SDS011;14501;52.282;10.560;2023-02-14T03:14:44;31.98;;;13.85;;
26946;SDS011;14501;52.282;10.560;2023-02-14T03:20:23;31.38;;;12.98;;
26946;SDS011;14501;52.282;10.560;2023-02-14T03:23:26;30.95;;;13.45;;
26946;SDS011;14501;52.282;10.560;2023-02-14T03:28:59;36.50;;;14.88;;
26946;SDS011;14501;52.282;10.560;2023-02-14T03:31:43;28.83;;;13.10;;
26946;SDS011;14501;52.282;10.560;2023-02-14T03:37:16;27.73;;;12.75;;
26946;SDS011;14501;52.282;10.560;2023-02-14T03:40:00;31.05;;;13.68;;
26946;SDS011;14501;52.282;10.560;2023-02-14T03:42:35;30.33;;;13.13;;
26946;SDS011;14501;52.282;10.560;2023-02-14T03:45:12;28.13;;;13.38;;
26946;SDS011;14501;52.282;10.560;2023-02-14T03:47:46;28.98;;;12.40;;
26946;SDS011;14501;52.282;10.560;2023-02-14T03:50:16;26.38;;;11.15;;
26946;SDS011;14501;52.282;10.560;2023-02-14T03:52:43;22.88;;;11.55;;
26946;SDS011;14501;52.282;10.560;2023-02-14T03:55:14;25.77;;;12.10;;
26946;SDS011;14501;52.282;10.560;2023-02-14T03:58:02;27.45;;;12.10;;
26946;SDS011;14501;52.282;10.560;2023-02-14T04:00:35;25.05;;;11.45;;
26946;SDS011;14501;52.282;10.560;2023-02-14T04:03:05;27.20;;;13.13;;
26946;SDS011;14501;52.282;10.560;2023-02-14T04:05:35;27.17;;;12.57;;
26946;SDS011;14501;52.282;10.560;2023-02-14T04:08:07;27.33;;;12.48;;
26946;SDS011;14501;52.282;10.560;2023-02-14T04:10:34;31.67;;;13.25;;
26946;SDS011;14501;52.282;10.560;2023-02-14T04:13:00;29.55;;;13.77;;
26946;SDS011;14501;52.282;10.560;2023-02-14T04:15:26;30.17;;;13.32;;
26946;SDS011;14501;52.282;10.560;2023-02-14T04:17:52;25.63;;;11.48;;
26946;SDS011;14501;52.282;10.560;2023-02-14T04:20:36;29.13;;;12.70;;
26946;SDS011;14501;52.282;10.560;2023-02-14T04:23:02;26.73;;;12.07;;
26946;SDS011;14501;52.282;10.560;2023-02-14T04:25:28;22.60;;;10.45;;
26946;SDS011;14501;52.282;10.560;2023-02-14T04:27:53;26.90;;;10.95;;
26946;SDS011;14501;52.282;10.560;2023-02-14T04:30:19;23.20;;;10.75;;
26946;SDS011;14501;52.282;10.560;2023-02-14T04:32:46;28.23;;;12.63;;
26946;SDS011;14501;52.282;10.560;2023-02-14T04:35:13;27.33;;;11.32;;
26946;SDS011;14501;52.282;10.560;2023-02-14T04:37:39;23.20;;;11.32;;
26946;SDS011;14501;52.282;10.560;2023-02-14T04:40:05;26.70;;;11.25;;
26946;SDS011;14501;52.282;10.560;2023-02-14T04:42:31;23.20;;;11.50;;
26946;SDS011;14501;52.282;10.560;2023-02-14T04:44:57;28.60;;;12.73;;
26946;SDS011;14501;52.282;10.560;2023-02-14T04:47:23;25.55;;;12.77;;
26946;SDS011;14501;52.282;10.560;2023-02-14T04:49:49;26.02;;;12.73;;
26946;SDS011;14501;52.282;10.560;2023-02-14T04:52:14;26.63;;;12.10;;
26946;SDS011;14501;52.282;10.560;2023-02-14T04:54:40;24.10;;;11.27;;
26946;SDS011;14501;52.282;10.560;2023-02-14T04:57:06;26.98;;;11.73;;
26946;SDS011;14501;52.282;10.560;2023-02-14T04:59:31;25.75;;;11.93;;
26946;SDS011;14501;52.282;10.560;2023-02-14T05:01:57;19.65;;;10.98;;
26946;SDS011;14501;52.282;10.560;2023-02-14T05:04:22;30.25;;;11.40;;
26946;SDS011;14501;52.282;10.560;2023-02-14T05:06:48;36.13;;;10.70;;
26946;SDS011;14501;52.282;10.560;2023-02-14T05:09:14;46.08;;;10.82;;
26946;SDS011;14501;52.282;10.560;2023-02-14T05:11:40;68.63;;;11.05;;
26946;SDS011;14501;52.282;10.560;2023-02-14T05:14:05;79.80;;;10.75;;
26946;SDS011;14501;52.282;10.560;2023-02-14T05:16:31;94.28;;;10.45;;
26946;SDS011;14501;52.282;10.560;2023-02-14T05:18:57;70.38;;;11.25;;
26946;SDS011;14501;52.282;10.560;2023-02-14T05:21:23;69.47;;;10.18;;
26946;SDS011;14501;52.282;10.560;2023-02-14T05:23:48;62.90;;;11.52;;
26946;SDS011;14501;52.282;10.560;2023-02-14T05:26:14;55.28;;;11.10;;
26946;SDS011;14501;52.282;10.560;2023-02-14T05:28:40;47.47;;;10.95;;
26946;SDS011;14501;52.282;10.560;2023-02-14T05:31:06;42.72;;;11.40;;
26946;SDS011;14501;52.282;10.560;2023-02-14T05:33:33;47.35;;;10.93;;
26946;SDS011;14501;52.282;10.560;2023-02-14T05:35:59;36.38;;;10.77;;
26946;SDS011;14501;52.282;10.560;2023-02-14T05:38:26;48.95;;;11.88;;
26946;SDS011;14501;52.282;10.560;2023-02-14T05:40:52;38.17;;;12.68;;
26946;SDS011;14501;52.282;10.560;2023-02-14T05:43:18;50.08;;;12.82;;
26946;SDS011;14501;52.282;10.560;2023-02-14T05:45:44;33.03;;;12.13;;
26946;SDS011;14501;52.282;10.560;2023-02-14T05:48:09;36.17;;;12.15;;
26946;SDS011;14501;52.282;10.560;2023-02-14T05:50:35;36.95;;;11.23;;
26946;SDS011;14501;52.282;10.560;2023-02-14T05:53:00;42.13;;;12.20;;
26946;SDS011;14501;52.282;10.560;2023-02-14T05:55:26;53.47;;;12.10;;
26946;SDS011;14501;52.282;10.560;2023-02-14T05:57:52;51.42;;;12.75;;
26946;SDS011;14501;52.282;10.560;2023-02-14T06:00:18;36.30;;;12.90;;
26946;SDS011;14501;52.282;10.560;2023-02-14T06:02:45;52.75;;;12.68;;
26946;SDS011;14501;52.282;10.560;2023-02-14T06:05:10;38.33;;;13.27;;
26946;SDS011;14501;52.282;10.560;2023-02-14T06:07:36;46.58;;;12.93;;
26946;SDS011;14501;52.282;10.560;2023-02-14T06:10:02;47.45;;;13.10;;
26946;SDS011;14501;52.282;10.560;2023-02-14T06:12:28;61.08;;;13.63;;
26946;SDS011;14501;52.282;10.560;2023-02-14T06:14:53;49.92;;;13.32;;
26946;SDS011;14501;52.282;10.560;2023-02-14T06:17:19;63.63;;;13.60;;
26946;SDS011;14501;52.282;10.560;2023-02-14T06:19:45;68.57;;;12.73;;
26946;SDS011;14501;52.282;10.560;2023-02-14T06:22:11;60.42;;;11.55;;
26946;SDS011;14501;52.282;10.560;2023-02-14T06:24:36;74.22;;;13.18;;
26946;SDS011;14501;52.282;10.560;2023-02-14T06:27:02;62.63;;;12.50;;
26946;SDS011;14501;52.282;10.560;2023-02-14T06:29:28;48.60;;;12.25;;
26946;SDS011;14501;52.282;10.560;2023-02-14T06:31:53;50.00;;;12.25;;
26946;SDS011;14501;52.282;10.560;2023-02-14T06:34:19;45.05;;;12.57;;
26946;SDS011;14501;52.282;10.560;2023-02-14T06:36:44;74.10;;;11.95;;
26946;SDS011;14501;52.282;10.560;2023-02-14T06:39:10;58.35;;;12.05;;
26946;SDS011;14501;52.282;10.560;2023-02-14T06:41:36;58.38;;;11.98;;
26946;SDS011;14501;52.282;10.560;2023-02-14T06:44:01;57.72;;;12.50;;
26946;SDS011;14501;52.282;10.560;2023-02-14T06:46:27;59.33;;;12.52;;
26946;SDS011;14501;52.282;10.560;2023-02-14T06:48:53;54.30;;;12.02;;
26946;SDS011;14501;52.282;10.560;2023-02-14T06:51:18;70.65;;;13.43;;
26946;SDS011;14501;52.282;10.560;2023-02-14T06:53:44;72.80;;;12.25;;
26946;SDS011;14501;52.282;10.560;2023-02-14T06:56:10;69.40;;;12.25;;
26946;SDS011;14501;52.282;10.560;2023-02-14T06:58:36;57.42;;;12.25;;
26946;SDS011;14501;52.282;10.560;2023-02-14T07:01:02;59.85;;;10.95;;
26946;SDS011;14501;52.282;10.560;2023-02-14T07:03:27;75.25;;;11.32;;
26946;SDS011;14501;52.282;10.560;2023-02-14T07:05:53;72.53;;;12.38;;
26946;SDS011;14501;52.282;10.560;2023-02-14T07:08:19;50.28;;;11.00;;
26946;SDS011;14501;52.282;10.560;2023-02-14T07:10:45;60.95;;;12.45;;
26946;SDS011;14501;52.282;10.560;2023-02-14T07:13:11;64.32;;;12.00;;
26946;SDS011;14501;52.282;10.560;2023-02-14T07:15:37;71.55;;;12.50;;
26946;SDS011;14501;52.282;10.560;2023-02-14T07:18:03;52.53;;;10.90;;
26946;SDS011;14501;52.282;10.560;2023-02-14T07:20:29;55.80;;;11.48;;
26946;SDS011;14501;52.282;10.560;2023-02-14T07:22:54;59.80;;;10.27;;
26946;SDS011;14501;52.282;10.560;2023-02-14T07:25:20;57.33;;;10.60;;
26946;SDS011;14501;52.282;10.560;2023-02-14T07:27:46;87.30;;;11.38;;
26946;SDS011;14501;52.282;10.560;2023-02-14T07:30:12;51.15;;;10.30;;
26946;SDS011;14501;52.282;10.560;2023-02-14T07:32:38;45.20;;;10.10;;
26946;SDS011;14501;52.282;10.560;2023-02-14T07:35:06;37.88;;;8.95;;
26946;SDS011;14501;52.282;10.560;2023-02-14T07:37:32;69.47;;;9.85;;
26946;SDS011;14501;52.282;10.560;2023-02-14T07:39:59;42.55;;;9.13;;
26946;SDS011;14501;52.282;10.560;2023-02-14T07:42:24;45.92;;;10.05;;
26946;SDS011;14501;52.282;10.560;2023-02-14T07:44:50;50.30;;;9.90;;
26946;SDS011;14501;52.282;10.560;2023-02-14T07:47:16;52.70;;;9.35;;
26946;SDS011;14501;52.282;10.560;2023-02-14T07:49:42;48.78;;;9.10;;
26946;SDS011;14501;52.282;10.560;2023-02-14T07:52:08;53.17;;;9.90;;
26946;SDS011;14501;52.282;10.560;2023-02-14T07:54:33;50.65;;;9.90;;
26946;SDS011;14501;52.282;10.560;2023-02-14T07:57:00;82.97;;;9.68;;
26946;SDS011;14501;52.282;10.560;2023-02-14T07:59:25;52.85;;;9.98;;
26946;SDS011;14501;52.282;10.560;2023-02-14T08:01:51;53.63;;;9.45;;
26946;SDS011;14501;52.282;10.560;2023-02-14T08:04:17;61.67;;;10.73;;
26946;SDS011;14501;52.282;10.560;2023-02-14T08:06:43;80.22;;;9.88;;
26946;SDS011;14501;52.282;10.560;2023-02-14T08:09:08;67.25;;;10.90;;
26946;SDS011;14501;52.282;10.560;2023-02-14T08:11:35;56.90;;;10.18;;
26946;SDS011;14501;52.282;10.560;2023-02-14T08:14:20;68.93;;;9.60;;
26946;SDS011;14501;52.282;10.560;2023-02-14T08:16:45;53.67;;;9.05;;
26946;SDS011;14501;52.282;10.560;2023-02-14T08:19:11;53.67;;;10.15;;
26946;SDS011;14501;52.282;10.560;2023-02-14T08:21:37;70.20;;;10.27;;
26946;SDS011;14501;52.282;10.560;2023-02-14T08:24:05;61.65;;;10.10;;
26946;SDS011;14501;52.282;10.560;2023-02-14T08:26:30;66.93;;;10.40;;
26946;SDS011;14501;52.282;10.560;2023-02-14T08:28:56;50.20;;;10.13;;
26946;SDS011;14501;52.282;10.560;2023-02-14T08:31:27;70.97;;;10.38;;
26946;SDS011;14501;52.282;10.560;2023-02-14T08:33:54;44.47;;;9.98;;
26946;SDS011;14501;52.282;10.560;2023-02-14T08:36:19;38.08;;;9.20;;
26946;SDS011;14501;52.282;10.560;2023-02-14T08:38:45;33.33;;;10.48;;
26946;SDS011;14501;52.282;10.560;2023-02-14T08:41:14;39.17;;;9.40;;
26946;SDS011;14501;52.282;10.560;2023-02-14T08:43:42;57.50;;;8.85;;
26946;SDS011;14501;52.282;10.560;2023-02-14T08:46:08;66.15;;;10.05;;
26946;SDS011;14501;52.282;10.560;2023-02-14T08:48:36;33.92;;;9.23;;
26946;SDS011;14501;52.282;10.560;2023-02-14T08:51:06;32.13;;;8.80;;
26946;SDS011;14501;52.282;10.560;2023-02-14T08:53:33;37.22;;;8.65;;
26946;SDS011;14501;52.282;10.560;2023-02-14T08:56:06;20.73;;;8.23;;
26946;SDS011;14501;52.282;10.560;2023-02-14T08:58:33;40.28;;;8.18;;
26946;SDS011;14501;52.282;10.560;2023-02-14T09:01:09;30.30;;;8.10;;
26946;SDS011;14501;52.282;10.560;2023-02-14T09:03:39;22.88;;;8.55;;
26946;SDS011;14501;52.282;10.560;2023-02-14T09:06:06;24.25;;;7.55;;
26946;SDS011;14501;52.282;10.560;2023-02-14T09:08:37;26.90;;;6.95;;
26946;SDS011;14501;52.282;10.560;2023-02-14T09:11:11;25.38;;;7.05;;
26946;SDS011;14501;52.282;10.560;2023-02-14T09:13:42;22.98;;;6.78;;
26946;SDS011;14501;52.282;10.560;2023-02-14T09:16:09;15.25;;;6.88;;
26946;SDS011;14501;52.282;10.560;2023-02-14T09:18:36;22.95;;;6.85;;
26946;SDS011;14501;52.282;10.560;2023-02-14T09:21:10;41.90;;;8.18;;
26946;SDS011;14501;52.282;10.560;2023-02-14T09:23:37;24.00;;;6.80;;
26946;SDS011;14501;52.282;10.560;2023-02-14T09:26:04;17.85;;;6.28;;
26946;SDS011;14501;52.282;10.560;2023-02-14T09:28:32;17.40;;;6.88;;
26946;SDS011;14501;52.282;10.560;2023-02-14T09:31:02;27.08;;;6.05;;
26946;SDS011;14501;52.282;10.560;2023-02-14T09:33:33;14.07;;;6.35;;
26946;SDS011;14501;52.282;10.560;2023-02-14T09:35:59;16.83;;;5.47;;
26946;SDS011;14501;52.282;10.560;2023-02-14T09:38:43;13.55;;;5.88;;
26946;SDS011;14501;52.282;10.560;2023-02-14T09:41:15;15.82;;;5.18;;
26946;SDS011;14501;52.282;10.560;2023-02-14T09:44:05;20.00;;;5.05;;
26946;SDS011;14501;52.282;10.560;2023-02-14T09:46:41;11.00;;;5.20;;
26946;SDS011;14501;52.282;10.560;2023-02-14T09:49:14;9.93;;;5.03;;
26946;SDS011;14501;52.282;10.560;2023-02-14T09:51:46;13.60;;;5.32;;
26946;SDS011;14501;52.282;10.560;2023-02-14T09:54:20;16.13;;;5.47;;
26946;SDS011;14501;52.282;10.560;2023-02-14T10:04:56;28.30;;;6.15;;
26946;SDS011;14501;52.282;10.560;2023-02-14T10:15:50;9.95;;;5.50;;
26946;SDS011;14501;52.282;10.560;2023-02-14T10:18:44;23.33;;;5.20;;
26946;SDS011;14501;52.282;10.560;2023-02-14T10:21:27;14.00;;;6.50;;
26946;SDS011;14501;52.282;10.560;2023-02-14T10:24:27;14.32;;;5.57;;
26946;SDS011;14501;52.282;10.560;2023-02-14T10:27:02;27.90;;;7.60;;
26946;SDS011;14501;52.282;10.560;2023-02-14T10:29:35;10.43;;;5.13;;
26946;SDS011;14501;52.282;10.560;2023-02-14T10:32:01;8.57;;;5.53;;
26946;SDS011;14501;52.282;10.560;2023-02-14T10:45:24;10.00;;;6.00;;
26946;SDS011;14501;52.282;10.560;2023-02-14T10:48:14;10.38;;;5.95;;
26946;SDS011;14501;52.282;10.560;2023-02-14T10:59:56;8.52;;;5.93;;
26946;SDS011;14501;52.282;10.560;2023-02-14T11:02:40;7.78;;;6.05;;
26946;SDS011;14501;52.282;10.560;2023-02-14T11:05:16;8.93;;;5.57;;
26946;SDS011;14501;52.282;10.560;2023-02-14T11:07:52;9.75;;;5.95;;
26946;SDS011;14501;52.282;10.560;2023-02-14T11:10:22;7.78;;;5.78;;
26946;SDS011;14501;52.282;10.560;2023-02-14T11:12:55;8.50;;;6.10;;
26946;SDS011;14501;52.282;10.560;2023-02-14T11:18:09;8.30;;;6.35;;
26946;SDS011;14501;52.282;10.560;2023-02-14T11:21:09;9.63;;;5.65;;
26946;SDS011;14501;52.282;10.560;2023-02-14T11:23:43;8.05;;;6.32;;
26946;SDS011;14501;52.282;10.560;2023-02-14T11:28:55;8.18;;;6.07;;
26946;SDS011;14501;52.282;10.560;2023-02-14T11:31:33;8.30;;;6.05;;
26946;SDS011;14501;52.282;10.560;2023-02-14T11:34:01;8.48;;;6.22;;
26946;SDS011;14501;52.282;10.560;2023-02-14T11:36:43;8.63;;;6.20;;
26946;SDS011;14501;52.282;10.560;2023-02-14T11:42:02;9.40;;;6.22;;
26946;SDS011;14501;52.282;10.560;2023-02-14T11:44:30;10.10;;;7.00;;
26946;SDS011;14501;52.282;10.560;2023-02-14T11:47:14;7.97;;;6.03;;
26946;SDS011;14501;52.282;10.560;2023-02-14T11:49:53;10.38;;;7.22;;
26946;SDS011;14501;52.282;10.560;2023-02-14T11:52:26;8.65;;;6.47;;
26946;SDS011;14501;52.282;10.560;2023-02-14T11:54:54;10.48;;;7.07;;
26946;SDS011;14501;52.282;10.560;2023-02-14T11:57:26;8.23;;;6.03;;
26946;SDS011;14501;52.282;10.560;2023-02-14T12:00:03;8.73;;;5.85;;
26946;SDS011;14501;52.282;10.560;2023-02-14T12:02:47;9.00;;;6.43;;
26946;SDS011;14501;52.282;10.560;2023-02-14T12:05:32;10.52;;;6.15;;
26946;SDS011;14501;52.282;10.560;2023-02-14T12:08:07;9.20;;;6.15;;
26946;SDS011;14501;52.282;10.560;2023-02-14T12:10:34;9.82;;;6.18;;
26946;SDS011;14501;52.282;10.560;2023-02-14T12:13:07;13.27;;;6.28;;
26946;SDS011;14501;52.282;10.560;2023-02-14T12:15:51;10.48;;;6.20;;
26946;SDS011;14501;52.282;10.560;2023-02-14T12:20:57;8.57;;;6.00;;
26946;SDS011;14501;52.282;10.560;2023-02-14T12:23:37;7.55;;;6.15;;
26946;SDS011;14501;52.282;10.560;2023-02-14T12:29:19;8.55;;;5.93;;
26946;SDS011;14501;52.282;10.560;2023-02-14T12:32:03;9.75;;;6.07;;
26946;SDS011;14501;52.282;10.560;2023-02-14T12:34:54;8.18;;;6.00;;
26946;SDS011;14501;52.282;10.560;2023-02-14T12:37:30;7.35;;;5.88;;
26946;SDS011;14501;52.282;10.560;2023-02-14T12:40:15;7.85;;;5.88;;
26946;SDS011;14501;52.282;10.560;2023-02-14T12:43:01;8.18;;;5.93;;
26946;SDS011;14501;52.282;10.560;2023-02-14T12:45:53;7.70;;;5.43;;
26946;SDS011;14501;52.282;10.560;2023-02-14T12:51:43;8.15;;;5.82;;
26946;SDS011;14501;52.282;10.560;2023-02-14T12:57:33;7.68;;;5.35;;
26946;SDS011;14501;52.282;10.560;2023-02-14T13:06:03;7.72;;;6.10;;
26946;SDS011;14501;52.282;10.560;2023-02-14T13:09:08;6.90;;;5.68;;
26946;SDS011;14501;52.282;10.560;2023-02-14T13:11:54;9.48;;;5.70;;
26946;SDS011;14501;52.282;10.560;2023-02-14T13:19:49;9.13;;;5.90;;
26946;SDS011;14501;52.282;10.560;2023-02-14T13:22:24;7.82;;;6.10;;
26946;SDS011;14501;52.282;10.560;2023-02-14T13:24:54;8.77;;;6.60;;
26946;SDS011;14501;52.282;10.560;2023-02-14T13:27:25;9.13;;;6.25;;
26946;SDS011;14501;52.282;10.560;2023-02-14T13:29:58;8.07;;;6.05;;
26946;SDS011;14501;52.282;10.560;2023-02-14T13:32:29;8.10;;;6.30;;
26946;SDS011;14501;52.282;10.560;2023-02-14T13:35:00;8.70;;;6.28;;
26946;SDS011;14501;52.282;10.560;2023-02-14T13:37:26;8.88;;;6.65;;
26946;SDS011;14501;52.282;10.560;2023-02-14T13:39:54;10.35;;;6.93;;
26946;SDS011;14501;52.282;10.560;2023-02-14T13:48:13;12.45;;;8.25;;
26946;SDS011;14501;52.282;10.560;2023-02-14T13:53:32;14.15;;;8.80;;
26946;SDS011;14501;52.282;10.560;2023-02-14T13:56:29;12.65;;;8.00;;
26946;SDS011;14501;52.282;10.560;2023-02-14T13:58:49;14.32;;;9.25;;
26946;SDS011;14501;52.282;10.560;2023-02-14T14:17:33;14.68;;;10.07;;
26946;SDS011;14501;52.282;10.560;2023-02-14T14:20:02;16.70;;;9.50;;
26946;SDS011;14501;52.282;10.560;2023-02-14T14:22:49;16.58;;;10.20;;
26946;SDS011;14501;52.282;10.560;2023-02-14T14:28:08;19.98;;;11.38;;
26946;SDS011;14501;52.282;10.560;2023-02-14T14:30:43;16.58;;;10.05;;
26946;SDS011;14501;52.282;10.560;2023-02-14T14:33:23;16.85;;;10.65;;
26946;SDS011;14501;52.282;10.560;2023-02-14T14:38:18;20.60;;;12.32;;
26946;SDS011;14501;52.282;10.560;2023-02-14T14:40:44;19.83;;;11.38;;
26946;SDS011;14501;52.282;10.560;2023-02-14T14:45:58;21.88;;;13.57;;
26946;SDS011;14501;52.282;10.560;2023-02-14T14:51:14;24.98;;;13.25;;
26946;SDS011;14501;52.282;10.560;2023-02-14T14:53:51;27.02;;;14.63;;
26946;SDS011;14501;52.282;10.560;2023-02-14T14:56:30;28.65;;;15.07;;
26946;SDS011;14501;52.282;10.560;2023-02-14T14:59:25;26.42;;;15.35;;
26946;SDS011;14501;52.282;10.560;2023-02-14T15:01:44;26.23;;;15.25;;
26946;SDS011;14501;52.282;10.560;2023-02-14T15:04:26;27.50;;;16.13;;
26946;SDS011;14501;52.282;10.560;2023-02-14T15:06:54;29.70;;;15.98;;
26946;SDS011;14501;52.282;10.560;2023-02-14T15:11:52;26.30;;;16.58;;
26946;SDS011;14501;52.282;10.560;2023-02-14T15:14:38;31.77;;;17.08;;
26946;SDS011;14501;52.282;10.560;2023-02-14T15:17:10;31.10;;;16.70;;
26946;SDS011;14501;52.282;10.560;2023-02-14T15:19:45;34.00;;;17.30;;
26946;SDS011;14501;52.282;10.560;2023-02-14T15:22:22;30.75;;;16.13;;
26946;SDS011;14501;52.282;10.560;2023-02-14T15:24:57;55.13;;;16.95;;
26946;SDS011;14501;52.282;10.560;2023-02-14T15:27:24;33.08;;;17.48;;
26946;SDS011;14501;52.282;10.560;2023-02-14T15:29:55;46.97;;;18.00;;
26946;SDS011;14501;52.282;10.560;2023-02-14T15:32:22;33.15;;;16.90;;
26946;SDS011;14501;52.282;10.560;2023-02-14T15:34:49;38.00;;;18.27;;
26946;SDS011;14501;52.282;10.560;2023-02-14T15:37:15;41.22;;;18.50;;
26946;SDS011;14501;52.282;10.560;2023-02-14T15:39:42;42.78;;;17.33;;
26946;SDS011;14501;52.282;10.560;2023-02-14T15:42:18;37.78;;;17.80;;
26946;SDS011;14501;52.282;10.560;2023-02-14T15:44:50;42.03;;;16.98;;
26946;SDS011;14501;52.282;10.560;2023-02-14T15:47:34;38.33;;;20.17;;
26946;SDS011;14501;52.282;10.560;2023-02-14T15:50:00;44.28;;;19.77;;
26946;SDS011;14501;52.282;10.560;2023-02-14T15:52:26;43.72;;;20.48;;
26946;SDS011;14501;52.282;10.560;2023-02-14T15:54:51;42.72;;;21.05;;
26946;SDS011;14501;52.282;10.560;2023-02-14T15:57:24;43.45;;;22.60;;
26946;SDS011;14501;52.282;10.560;2023-02-14T15:59:51;44.17;;;21.48;;
26946;SDS011;14501;52.282;10.560;2023-02-14T16:02:25;45.90;;;23.48;;
26946;SDS011;14501;52.282;10.560;2023-02-14T16:05:02;48.40;;;22.70;;
26946;SDS011;14501;52.282;10.560;2023-02-14T16:07:30;50.70;;;23.25;;
26946;SDS011;14501;52.282;10.560;2023-02-14T16:13:03;44.08;;;22.58;;
26946;SDS011;14501;52.282;10.560;2023-02-14T16:15:33;56.72;;;24.55;;
26946;SDS011;14501;52.282;10.560;2023-02-14T16:18:00;50.60;;;23.35;;
26946;SDS011;14501;52.282;10.560;2023-02-14T16:25:47;49.28;;;23.92;;
26946;SDS011;14501;52.282;10.560;2023-02-14T16:28:13;49.17;;;22.27;;
26946;SDS011;14501;52.282;10.560;2023-02-14T16:30:39;54.33;;;23.63;;
26946;SDS011;14501;52.282;10.560;2023-02-14T16:33:20;48.97;;;23.25;;
26946;SDS011;14501;52.282;10.560;2023-02-14T16:35:47;50.50;;;23.23;;
26946;SDS011;14501;52.282;10.560;2023-02-14T16:38:16;51.22;;;24.70;;
26946;SDS011;14501;52.282;10.560;2023-02-14T16:40:47;55.13;;;24.83;;
26946;SDS011;14501;52.282;10.560;2023-02-14T16:43:15;53.78;;;24.77;;
26946;SDS011;14501;52.282;10.560;2023-02-14T16:45:42;51.40;;;23.88;;
26946;SDS011;14501;52.282;10.560;2023-02-14T16:48:08;50.33;;;23.65;;
26946;SDS011;14501;52.282;10.560;2023-02-14T16:50:35;55.03;;;25.30;;
26946;SDS011;14501;52.282;10.560;2023-02-14T16:53:03;50.30;;;22.90;;
26946;SDS011;14501;52.282;10.560;2023-02-14T16:55:30;45.38;;;21.88;;
26946;SDS011;14501;52.282;10.560;2023-02-14T16:57:56;58.55;;;25.17;;
26946;SDS011;14501;52.282;10.560;2023-02-14T17:00:24;56.55;;;24.45;;
26946;SDS011;14501;52.282;10.560;2023-02-14T17:02:51;51.05;;;23.73;;
26946;SDS011;14501;52.282;10.560;2023-02-14T17:05:28;52.72;;;23.92;;
26946;SDS011;14501;52.282;10.560;2023-02-14T17:07:56;48.92;;;22.50;;
26946;SDS011;14501;52.282;10.560;2023-02-14T17:10:21;49.92;;;23.27;;
26946;SDS011;14501;52.282;10.560;2023-02-14T17:12:47;43.67;;;21.38;;
26946;SDS011;14501;52.282;10.560;2023-02-14T17:15:18;45.38;;;22.65;;